sensor_id;sensor_type;location;lat;lon;timestamp;temperature;humidity
10411;DHT22;5251;52.112;8.606;2023-01-10T00:00:26;9.80;99.90
10411;DHT22;5251;52.112;8.606;2023-01-10T00:02:53;9.70;99.90
10411;DHT22;5251;52.112;8.606;2023-01-10T00:05:19;9.80;99.90
10411;DHT22;5251;52.112;8.606;2023-01-10T00:07:45;9.70;99.90
10411;DHT22;5251;52.112;8.606;2023-01-10T00:10:11;9.80;99.90
10411;DHT22;5251;52.112;8.606;2023-01-10T00:12:37;9.70;99.90
10411;DHT22;5251;52.112;8.606;2023-01-10T00:15:21;9.70;99.90
10411;DHT22;5251;52.112;8.606;2023-01-10T00:17:46;9.70;99.90
10411;DHT22;5251;52.112;8.606;2023-01-10T00:20:12;9.70;99.90
10411;DHT22;5251;52.112;8.606;2023-01-10T00:22:38;9.70;99.90
10411;DHT22;5251;52.112;8.606;2023-01-10T00:25:04;9.60;99.90
10411;DHT22;5251;52.112;8.606;2023-01-10T00:27:30;9.50;99.90
10411;DHT22;5251;52.112;8.606;2023-01-10T00:29:55;9.50;99.90
10411;DHT22;5251;52.112;8.606;2023-01-10T00:32:22;9.50;99.90
10411;DHT22;5251;52.112;8.606;2023-01-10T00:34:48;9.50;99.90
10411;DHT22;5251;52.112;8.606;2023-01-10T00:37:13;9.40;99.90
10411;DHT22;5251;52.112;8.606;2023-01-10T00:39:39;9.40;99.90
10411;DHT22;5251;52.112;8.606;2023-01-10T00:42:05;9.40;99.90
10411;DHT22;5251;52.112;8.606;2023-01-10T00:44:49;9.30;99.90
10411;DHT22;5251;52.112;8.606;2023-01-10T00:47:15;9.30;99.90
10411;DHT22;5251;52.112;8.606;2023-01-10T00:49:42;9.30;99.90
10411;DHT22;5251;52.112;8.606;2023-01-10T00:52:08;9.20;99.90
10411;DHT22;5251;52.112;8.606;2023-01-10T00:54:34;9.20;99.90
10411;DHT22;5251;52.112;8.606;2023-01-10T00:56:59;9.00;99.90
10411;DHT22;5251;52.112;8.606;2023-01-10T00:59:25;9.00;99.90
10411;DHT22;5251;52.112;8.606;2023-01-10T01:01:51;8.90;99.90
10411;DHT22;5251;52.112;8.606;2023-01-10T01:04:17;8.90;99.90
10411;DHT22;5251;52.112;8.606;2023-01-10T01:06:43;8.80;99.90
10411;DHT22;5251;52.112;8.606;2023-01-10T01:09:10;8.80;99.90
10411;DHT22;5251;52.112;8.606;2023-01-10T01:11:35;8.70;99.90
10411;DHT22;5251;52.112;8.606;2023-01-10T01:14:01;8.70;99.90
10411;DHT22;5251;52.112;8.606;2023-01-10T01:16:26;8.70;99.90
10411;DHT22;5251;52.112;8.606;2023-01-10T01:18:52;8.70;99.90
10411;DHT22;5251;52.112;8.606;2023-01-10T01:21:18;8.70;99.90
10411;DHT22;5251;52.112;8.606;2023-01-10T01:23:43;8.80;99.90
10411;DHT22;5251;52.112;8.606;2023-01-10T01:26:09;8.80;99.90
10411;DHT22;5251;52.112;8.606;2023-01-10T01:28:35;8.80;99.90
10411;DHT22;5251;52.112;8.606;2023-01-10T01:31:08;8.80;99.90
10411;DHT22;5251;52.112;8.606;2023-01-10T01:33:34;8.90;99.90
10411;DHT22;5251;52.112;8.606;2023-01-10T01:36:00;8.90;99.90
10411;DHT22;5251;52.112;8.606;2023-01-10T01:38:25;8.90;99.90
10411;DHT22;5251;52.112;8.606;2023-01-10T01:40:51;9.00;99.90
10411;DHT22;5251;52.112;8.606;2023-01-10T01:43:27;9.00;99.90
10411;DHT22;5251;52.112;8.606;2023-01-10T01:45:59;9.00;99.90
10411;DHT22;5251;52.112;8.606;2023-01-10T01:48:40;9.10;99.90
10411;DHT22;5251;52.112;8.606;2023-01-10T01:51:11;9.00;99.90
10411;DHT22;5251;52.112;8.606;2023-01-10T01:53:45;9.00;99.90
10411;DHT22;5251;52.112;8.606;2023-01-10T01:56:23;9.00;99.90
10411;DHT22;5251;52.112;8.606;2023-01-10T01:59:15;8.90;99.90
10411;DHT22;5251;52.112;8.606;2023-01-10T02:01:43;8.90;99.90
10411;DHT22;5251;52.112;8.606;2023-01-10T02:04:31;8.90;99.90
10411;DHT22;5251;52.112;8.606;2023-01-10T02:06:59;8.90;99.90
10411;DHT22;5251;52.112;8.606;2023-01-10T02:09:38;8.90;99.90
10411;DHT22;5251;52.112;8.606;2023-01-10T02:12:06;8.90;99.90
10411;DHT22;5251;52.112;8.606;2023-01-10T02:14:32;8.80;99.90
10411;DHT22;5251;52.112;8.606;2023-01-10T02:16:58;8.70;99.90
10411;DHT22;5251;52.112;8.606;2023-01-10T02:19:34;8.70;99.90
10411;DHT22;5251;52.112;8.606;2023-01-10T02:28:26;8.60;99.90
10411;DHT22;5251;52.112;8.606;2023-01-10T02:39:15;8.50;99.90
10411;DHT22;5251;52.112;8.606;2023-01-10T02:41:55;8.50;99.90
10411;DHT22;5251;52.112;8.606;2023-01-10T02:44:51;8.50;99.90
10411;DHT22;5251;52.112;8.606;2023-01-10T02:47:19;8.50;99.90
10411;DHT22;5251;52.112;8.606;2023-01-10T02:49:46;8.50;99.90
10411;DHT22;5251;52.112;8.606;2023-01-10T02:52:18;8.60;99.90
10411;DHT22;5251;52.112;8.606;2023-01-10T02:54:47;8.60;99.90
10411;DHT22;5251;52.112;8.606;2023-01-10T02:57:18;8.60;99.90
10411;DHT22;5251;52.112;8.606;2023-01-10T03:10:41;8.80;99.90
10411;DHT22;5251;52.112;8.606;2023-01-10T03:13:15;8.80;99.90
10411;DHT22;5251;52.112;8.606;2023-01-10T03:15:43;8.90;99.90
10411;DHT22;5251;52.112;8.606;2023-01-10T03:18:14;8.90;99.90
10411;DHT22;5251;52.112;8.606;2023-01-10T03:20:45;8.90;99.90
10411;DHT22;5251;52.112;8.606;2023-01-10T03:23:13;8.90;99.90
10411;DHT22;5251;52.112;8.606;2023-01-10T03:25:39;8.90;99.90
10411;DHT22;5251;52.112;8.606;2023-01-10T03:28:11;9.00;99.90
10411;DHT22;5251;52.112;8.606;2023-01-10T03:30:44;9.00;99.90
10411;DHT22;5251;52.112;8.606;2023-01-10T03:33:13;9.00;99.90
10411;DHT22;5251;52.112;8.606;2023-01-10T03:38:20;9.00;99.90
10411;DHT22;5251;52.112;8.606;2023-01-10T03:41:06;9.00;99.90
10411;DHT22;5251;52.112;8.606;2023-01-10T03:43:53;9.00;99.90
10411;DHT22;5251;52.112;8.606;2023-01-10T03:46:45;9.00;99.90
10411;DHT22;5251;52.112;8.606;2023-01-10T03:49:12;9.00;99.90
10411;DHT22;5251;52.112;8.606;2023-01-10T03:51:39;9.00;99.90
10411;DHT22;5251;52.112;8.606;2023-01-10T03:54:06;9.00;99.90
10411;DHT22;5251;52.112;8.606;2023-01-10T03:56:43;9.00;99.90
10411;DHT22;5251;52.112;8.606;2023-01-10T03:59:09;8.90;99.90
10411;DHT22;5251;52.112;8.606;2023-01-10T04:01:34;8.90;99.90
10411;DHT22;5251;52.112;8.606;2023-01-10T04:04:00;8.90;99.90
10411;DHT22;5251;52.112;8.606;2023-01-10T04:06:25;8.90;99.90
10411;DHT22;5251;52.112;8.606;2023-01-10T04:08:51;8.90;99.90
10411;DHT22;5251;52.112;8.606;2023-01-10T04:11:16;8.90;99.90
10411;DHT22;5251;52.112;8.606;2023-01-10T04:13:42;8.90;99.90
10411;DHT22;5251;52.112;8.606;2023-01-10T04:16:07;8.90;99.90
10411;DHT22;5251;52.112;8.606;2023-01-10T04:18:33;8.90;99.90
10411;DHT22;5251;52.112;8.606;2023-01-10T04:20:59;8.90;99.90
10411;DHT22;5251;52.112;8.606;2023-01-10T04:23:24;8.90;99.90
10411;DHT22;5251;52.112;8.606;2023-01-10T04:25:50;8.90;99.90
10411;DHT22;5251;52.112;8.606;2023-01-10T04:28:16;8.80;99.90
10411;DHT22;5251;52.112;8.606;2023-01-10T04:30:41;8.90;99.90
10411;DHT22;5251;52.112;8.606;2023-01-10T04:33:07;8.90;99.90
10411;DHT22;5251;52.112;8.606;2023-01-10T04:35:34;8.80;99.90
10411;DHT22;5251;52.112;8.606;2023-01-10T04:38:00;8.80;99.90
10411;DHT22;5251;52.112;8.606;2023-01-10T04:40:25;8.80;99.90
10411;DHT22;5251;52.112;8.606;2023-01-10T04:42:51;8.80;99.90
10411;DHT22;5251;52.112;8.606;2023-01-10T04:45:16;8.80;99.90
10411;DHT22;5251;52.112;8.606;2023-01-10T04:47:51;8.80;99.90
10411;DHT22;5251;52.112;8.606;2023-01-10T04:50:20;8.80;99.90
10411;DHT22;5251;52.112;8.606;2023-01-10T04:52:46;8.80;99.90
10411;DHT22;5251;52.112;8.606;2023-01-10T04:55:11;8.80;99.90
10411;DHT22;5251;52.112;8.606;2023-01-10T04:57:37;8.70;99.90
10411;DHT22;5251;52.112;8.606;2023-01-10T05:00:03;8.80;99.90
10411;DHT22;5251;52.112;8.606;2023-01-10T05:02:29;8.70;99.90
10411;DHT22;5251;52.112;8.606;2023-01-10T05:04:54;8.70;99.90
10411;DHT22;5251;52.112;8.606;2023-01-10T05:07:20;8.70;99.90
10411;DHT22;5251;52.112;8.606;2023-01-10T05:09:46;8.70;99.90
10411;DHT22;5251;52.112;8.606;2023-01-10T05:12:11;8.70;99.90
10411;DHT22;5251;52.112;8.606;2023-01-10T05:14:37;8.50;99.90
10411;DHT22;5251;52.112;8.606;2023-01-10T05:17:02;8.70;99.90
10411;DHT22;5251;52.112;8.606;2023-01-10T05:19:28;8.60;99.90
10411;DHT22;5251;52.112;8.606;2023-01-10T05:21:53;8.70;99.90
10411;DHT22;5251;52.112;8.606;2023-01-10T05:24:19;8.70;99.90
10411;DHT22;5251;52.112;8.606;2023-01-10T05:26:45;8.70;99.90
10411;DHT22;5251;52.112;8.606;2023-01-10T05:29:10;8.70;99.90
10411;DHT22;5251;52.112;8.606;2023-01-10T05:31:36;8.80;99.90
10411;DHT22;5251;52.112;8.606;2023-01-10T05:34:02;8.80;99.90
10411;DHT22;5251;52.112;8.606;2023-01-10T05:36:27;8.80;99.90
10411;DHT22;5251;52.112;8.606;2023-01-10T05:38:53;8.90;99.90
10411;DHT22;5251;52.112;8.606;2023-01-10T05:41:18;8.90;99.90
10411;DHT22;5251;52.112;8.606;2023-01-10T05:43:44;8.80;99.90
10411;DHT22;5251;52.112;8.606;2023-01-10T05:46:10;8.90;99.90
10411;DHT22;5251;52.112;8.606;2023-01-10T05:48:35;8.80;99.90
10411;DHT22;5251;52.112;8.606;2023-01-10T05:51:01;8.90;99.90
10411;DHT22;5251;52.112;8.606;2023-01-10T05:53:27;9.00;99.90
10411;DHT22;5251;52.112;8.606;2023-01-10T05:55:54;8.90;99.90
10411;DHT22;5251;52.112;8.606;2023-01-10T05:58:20;8.90;99.90
10411;DHT22;5251;52.112;8.606;2023-01-10T06:00:46;8.80;99.90
10411;DHT22;5251;52.112;8.606;2023-01-10T06:03:12;8.90;99.90
10411;DHT22;5251;52.112;8.606;2023-01-10T06:05:37;8.90;99.90
10411;DHT22;5251;52.112;8.606;2023-01-10T06:08:03;8.90;99.90
10411;DHT22;5251;52.112;8.606;2023-01-10T06:10:28;8.80;99.90
10411;DHT22;5251;52.112;8.606;2023-01-10T06:12:54;8.80;99.90
10411;DHT22;5251;52.112;8.606;2023-01-10T06:15:20;8.70;99.90
10411;DHT22;5251;52.112;8.606;2023-01-10T06:17:45;8.70;99.90
10411;DHT22;5251;52.112;8.606;2023-01-10T06:20:12;8.70;99.90
10411;DHT22;5251;52.112;8.606;2023-01-10T06:22:41;8.70;99.90
10411;DHT22;5251;52.112;8.606;2023-01-10T06:25:08;8.70;99.90
10411;DHT22;5251;52.112;8.606;2023-01-10T06:27:34;8.60;99.90
10411;DHT22;5251;52.112;8.606;2023-01-10T06:29:59;8.60;99.90
10411;DHT22;5251;52.112;8.606;2023-01-10T06:32:26;8.50;99.90
10411;DHT22;5251;52.112;8.606;2023-01-10T06:34:52;8.50;99.90
10411;DHT22;5251;52.112;8.606;2023-01-10T06:37:17;8.50;99.90
10411;DHT22;5251;52.112;8.606;2023-01-10T06:39:43;8.50;99.90
10411;DHT22;5251;52.112;8.606;2023-01-10T06:42:10;8.50;99.90
10411;DHT22;5251;52.112;8.606;2023-01-10T06:44:36;8.50;99.90
10411;DHT22;5251;52.112;8.606;2023-01-10T06:47:02;8.50;99.90
10411;DHT22;5251;52.112;8.606;2023-01-10T06:49:28;8.50;99.90
10411;DHT22;5251;52.112;8.606;2023-01-10T06:51:54;8.50;99.90
10411;DHT22;5251;52.112;8.606;2023-01-10T06:54:19;8.50;99.90
10411;DHT22;5251;52.112;8.606;2023-01-10T06:56:47;8.60;99.90
10411;DHT22;5251;52.112;8.606;2023-01-10T06:59:13;8.60;99.90
10411;DHT22;5251;52.112;8.606;2023-01-10T07:01:39;8.60;99.90
10411;DHT22;5251;52.112;8.606;2023-01-10T07:04:04;8.70;99.90
10411;DHT22;5251;52.112;8.606;2023-01-10T07:06:30;8.70;99.90
10411;DHT22;5251;52.112;8.606;2023-01-10T07:25:46;8.80;99.90
10411;DHT22;5251;52.112;8.606;2023-01-10T07:28:12;8.80;99.90
10411;DHT22;5251;52.112;8.606;2023-01-10T07:30:37;8.80;99.90
10411;DHT22;5251;52.112;8.606;2023-01-10T07:33:03;8.90;99.90
10411;DHT22;5251;52.112;8.606;2023-01-10T07:35:30;8.90;99.90
10411;DHT22;5251;52.112;8.606;2023-01-10T07:37:59;8.80;99.90
10411;DHT22;5251;52.112;8.606;2023-01-10T07:40:27;8.90;99.90
10411;DHT22;5251;52.112;8.606;2023-01-10T07:42:57;9.00;99.90
10411;DHT22;5251;52.112;8.606;2023-01-10T07:45:23;9.00;99.90
10411;DHT22;5251;52.112;8.606;2023-01-10T07:47:48;9.00;99.90
10411;DHT22;5251;52.112;8.606;2023-01-10T07:50:14;9.00;99.90
10411;DHT22;5251;52.112;8.606;2023-01-10T07:52:40;9.00;99.90
10411;DHT22;5251;52.112;8.606;2023-01-10T07:55:06;9.10;99.90
10411;DHT22;5251;52.112;8.606;2023-01-10T07:57:31;9.10;99.90
10411;DHT22;5251;52.112;8.606;2023-01-10T07:59:57;9.10;99.90
10411;DHT22;5251;52.112;8.606;2023-01-10T08:02:23;9.20;99.90
10411;DHT22;5251;52.112;8.606;2023-01-10T08:04:48;9.10;99.90
10411;DHT22;5251;52.112;8.606;2023-01-10T08:07:14;9.20;99.90
10411;DHT22;5251;52.112;8.606;2023-01-10T08:09:39;9.10;99.90
10411;DHT22;5251;52.112;8.606;2023-01-10T08:12:05;9.10;99.90
10411;DHT22;5251;52.112;8.606;2023-01-10T08:14:30;9.10;99.90
10411;DHT22;5251;52.112;8.606;2023-01-10T08:16:56;9.10;99.90
10411;DHT22;5251;52.112;8.606;2023-01-10T08:19:21;9.10;99.90
10411;DHT22;5251;52.112;8.606;2023-01-10T08:21:47;9.10;99.90
10411;DHT22;5251;52.112;8.606;2023-01-10T08:24:12;9.10;99.90
10411;DHT22;5251;52.112;8.606;2023-01-10T08:26:38;9.00;99.90
10411;DHT22;5251;52.112;8.606;2023-01-10T08:29:04;9.10;99.90
10411;DHT22;5251;52.112;8.606;2023-01-10T08:31:29;9.10;99.90
10411;DHT22;5251;52.112;8.606;2023-01-10T08:33:55;9.10;99.90
10411;DHT22;5251;52.112;8.606;2023-01-10T08:36:21;9.20;99.90
10411;DHT22;5251;52.112;8.606;2023-01-10T08:38:47;9.30;99.90
10411;DHT22;5251;52.112;8.606;2023-01-10T08:41:12;9.20;99.90
10411;DHT22;5251;52.112;8.606;2023-01-10T08:43:38;9.30;99.90
10411;DHT22;5251;52.112;8.606;2023-01-10T08:46:05;9.20;99.90
10411;DHT22;5251;52.112;8.606;2023-01-10T08:48:30;9.30;99.90
10411;DHT22;5251;52.112;8.606;2023-01-10T08:50:56;9.40;99.90
10411;DHT22;5251;52.112;8.606;2023-01-10T08:53:22;9.30;99.90
10411;DHT22;5251;52.112;8.606;2023-01-10T08:55:48;9.40;99.90
10411;DHT22;5251;52.112;8.606;2023-01-10T08:58:14;9.40;99.90
10411;DHT22;5251;52.112;8.606;2023-01-10T09:00:40;9.40;99.90
10411;DHT22;5251;52.112;8.606;2023-01-10T09:03:06;9.50;99.90
10411;DHT22;5251;52.112;8.606;2023-01-10T09:05:33;9.50;99.90
10411;DHT22;5251;52.112;8.606;2023-01-10T09:08:00;9.90;99.90
10411;DHT22;5251;52.112;8.606;2023-01-10T09:10:27;9.60;99.90
10411;DHT22;5251;52.112;8.606;2023-01-10T09:12:53;9.60;99.90
10411;DHT22;5251;52.112;8.606;2023-01-10T09:15:19;9.60;99.90
10411;DHT22;5251;52.112;8.606;2023-01-10T09:17:45;10.10;99.90
10411;DHT22;5251;52.112;8.606;2023-01-10T09:20:10;9.70;99.90
10411;DHT22;5251;52.112;8.606;2023-01-10T09:22:37;9.70;99.90
10411;DHT22;5251;52.112;8.606;2023-01-10T09:25:03;9.60;99.90
10411;DHT22;5251;52.112;8.606;2023-01-10T09:27:29;9.70;99.90
10411;DHT22;5251;52.112;8.606;2023-01-10T09:29:55;9.70;99.90
10411;DHT22;5251;52.112;8.606;2023-01-10T09:32:21;9.80;99.90
10411;DHT22;5251;52.112;8.606;2023-01-10T09:34:47;9.80;99.90
10411;DHT22;5251;52.112;8.606;2023-01-10T09:37:15;9.80;99.90
10411;DHT22;5251;52.112;8.606;2023-01-10T09:39:42;9.80;99.90
10411;DHT22;5251;52.112;8.606;2023-01-10T09:48:57;9.90;99.90
10411;DHT22;5251;52.112;8.606;2023-01-10T09:51:34;9.90;99.90
10411;DHT22;5251;52.112;8.606;2023-01-10T09:54:04;9.90;99.90
10411;DHT22;5251;52.112;8.606;2023-01-10T09:56:32;10.00;99.90
10411;DHT22;5251;52.112;8.606;2023-01-10T09:58:59;10.00;99.90
10411;DHT22;5251;52.112;8.606;2023-01-10T10:01:31;10.10;99.90
10411;DHT22;5251;52.112;8.606;2023-01-10T10:04:34;10.10;99.90
10411;DHT22;5251;52.112;8.606;2023-01-10T10:07:01;10.10;99.90
10411;DHT22;5251;52.112;8.606;2023-01-10T10:09:32;10.10;99.90
10411;DHT22;5251;52.112;8.606;2023-01-10T10:15:01;10.10;99.90
10411;DHT22;5251;52.112;8.606;2023-01-10T10:17:40;10.10;99.90
10411;DHT22;5251;52.112;8.606;2023-01-10T10:20:24;10.20;99.90
10411;DHT22;5251;52.112;8.606;2023-01-10T10:30:50;10.20;99.90
10411;DHT22;5251;52.112;8.606;2023-01-10T10:36:10;10.30;99.90
10411;DHT22;5251;52.112;8.606;2023-01-10T10:38:42;10.30;99.90
10411;DHT22;5251;52.112;8.606;2023-01-10T10:41:36;10.50;99.90
10411;DHT22;5251;52.112;8.606;2023-01-10T10:44:19;10.50;99.90
10411;DHT22;5251;52.112;8.606;2023-01-10T10:46:47;10.50;99.90
10411;DHT22;5251;52.112;8.606;2023-01-10T10:49:20;10.60;99.90
10411;DHT22;5251;52.112;8.606;2023-01-10T10:51:52;10.70;99.90
10411;DHT22;5251;52.112;8.606;2023-01-10T10:54:18;10.80;99.90
10411;DHT22;5251;52.112;8.606;2023-01-10T10:56:44;10.80;99.90
10411;DHT22;5251;52.112;8.606;2023-01-10T10:59:17;10.80;99.90
10411;DHT22;5251;52.112;8.606;2023-01-10T11:01:47;10.90;99.90
10411;DHT22;5251;52.112;8.606;2023-01-10T11:04:18;10.80;99.90
10411;DHT22;5251;52.112;8.606;2023-01-10T11:06:45;10.80;99.80
10411;DHT22;5251;52.112;8.606;2023-01-10T11:09:16;10.80;99.80
10411;DHT22;5251;52.112;8.606;2023-01-10T11:12:14;10.80;99.90
10411;DHT22;5251;52.112;8.606;2023-01-10T11:14:46;10.80;99.90
10411;DHT22;5251;52.112;8.606;2023-01-10T11:17:27;10.90;99.90
10411;DHT22;5251;52.112;8.606;2023-01-10T11:20:03;10.90;99.80
10411;DHT22;5251;52.112;8.606;2023-01-10T11:22:43;10.90;99.70
10411;DHT22;5251;52.112;8.606;2023-01-10T11:25:15;10.80;99.70
10411;DHT22;5251;52.112;8.606;2023-01-10T11:27:58;10.90;99.80
10411;DHT22;5251;52.112;8.606;2023-01-10T11:30:31;10.90;99.60
10411;DHT22;5251;52.112;8.606;2023-01-10T11:33:05;10.80;99.70
10411;DHT22;5251;52.112;8.606;2023-01-10T11:35:36;10.80;99.80
10411;DHT22;5251;52.112;8.606;2023-01-10T11:38:19;10.90;99.60
10411;DHT22;5251;52.112;8.606;2023-01-10T11:40:55;10.90;99.80
10411;DHT22;5251;52.112;8.606;2023-01-10T11:45:55;10.90;99.60
10411;DHT22;5251;52.112;8.606;2023-01-10T11:48:24;10.90;99.60
10411;DHT22;5251;52.112;8.606;2023-01-10T11:50:53;11.00;99.70
10411;DHT22;5251;52.112;8.606;2023-01-10T11:53:39;11.00;99.70
10411;DHT22;5251;52.112;8.606;2023-01-10T11:56:13;11.00;99.70
10411;DHT22;5251;52.112;8.606;2023-01-10T11:58:46;11.00;99.50
10411;DHT22;5251;52.112;8.606;2023-01-10T12:01:44;11.10;99.40
10411;DHT22;5251;52.112;8.606;2023-01-10T12:04:15;11.10;99.50
10411;DHT22;5251;52.112;8.606;2023-01-10T12:06:50;11.10;99.30
10411;DHT22;5251;52.112;8.606;2023-01-10T12:09:42;11.10;99.30
10411;DHT22;5251;52.112;8.606;2023-01-10T12:12:23;11.20;99.50
10411;DHT22;5251;52.112;8.606;2023-01-10T12:14:54;11.20;99.40
10411;DHT22;5251;52.112;8.606;2023-01-10T12:17:30;11.30;99.10
10411;DHT22;5251;52.112;8.606;2023-01-10T12:19:59;11.30;99.20
10411;DHT22;5251;52.112;8.606;2023-01-10T12:22:36;11.30;98.90
10411;DHT22;5251;52.112;8.606;2023-01-10T12:25:29;11.30;98.90
10411;DHT22;5251;52.112;8.606;2023-01-10T12:27:53;11.30;98.60
10411;DHT22;5251;52.112;8.606;2023-01-10T12:30:35;11.30;98.50
10411;DHT22;5251;52.112;8.606;2023-01-10T12:33:10;11.30;98.50
10411;DHT22;5251;52.112;8.606;2023-01-10T12:35:57;11.40;98.40
10411;DHT22;5251;52.112;8.606;2023-01-10T12:38:44;11.30;98.30
10411;DHT22;5251;52.112;8.606;2023-01-10T12:44:46;11.30;98.10
10411;DHT22;5251;52.112;8.606;2023-01-10T12:52:32;11.30;97.90
10411;DHT22;5251;52.112;8.606;2023-01-10T12:55:00;11.30;97.80
10411;DHT22;5251;52.112;8.606;2023-01-10T12:57:31;11.30;97.60
10411;DHT22;5251;52.112;8.606;2023-01-10T13:00:03;11.30;97.30
10411;DHT22;5251;52.112;8.606;2023-01-10T13:02:42;11.30;97.20
10411;DHT22;5251;52.112;8.606;2023-01-10T13:05:25;11.30;97.30
10411;DHT22;5251;52.112;8.606;2023-01-10T13:07:55;11.30;97.30
10411;DHT22;5251;52.112;8.606;2023-01-10T13:10:24;11.30;97.30
10411;DHT22;5251;52.112;8.606;2023-01-10T13:13:03;11.20;97.20
10411;DHT22;5251;52.112;8.606;2023-01-10T13:15:35;11.20;97.40
10411;DHT22;5251;52.112;8.606;2023-01-10T13:18:13;11.20;97.30
10411;DHT22;5251;52.112;8.606;2023-01-10T13:20:41;11.30;97.40
10411;DHT22;5251;52.112;8.606;2023-01-10T13:23:35;11.30;97.20
10411;DHT22;5251;52.112;8.606;2023-01-10T13:26:07;11.20;97.30
10411;DHT22;5251;52.112;8.606;2023-01-10T13:28:36;11.20;97.20
10411;DHT22;5251;52.112;8.606;2023-01-10T13:31:04;11.20;97.30
10411;DHT22;5251;52.112;8.606;2023-01-10T13:33:55;11.20;97.10
10411;DHT22;5251;52.112;8.606;2023-01-10T13:36:28;11.20;97.10
10411;DHT22;5251;52.112;8.606;2023-01-10T13:39:01;11.20;97.10
10411;DHT22;5251;52.112;8.606;2023-01-10T13:47:55;11.20;97.30
10411;DHT22;5251;52.112;8.606;2023-01-10T13:52:53;11.20;97.20
10411;DHT22;5251;52.112;8.606;2023-01-10T13:57:59;11.10;97.00
10411;DHT22;5251;52.112;8.606;2023-01-10T14:03:55;11.10;96.80
10411;DHT22;5251;52.112;8.606;2023-01-10T14:08:59;11.00;96.70
10411;DHT22;5251;52.112;8.606;2023-01-10T14:11:29;10.90;96.50
10411;DHT22;5251;52.112;8.606;2023-01-10T14:13:57;10.90;96.60
10411;DHT22;5251;52.112;8.606;2023-01-10T14:18:53;10.90;96.80
10411;DHT22;5251;52.112;8.606;2023-01-10T14:21:26;10.80;96.70
10411;DHT22;5251;52.112;8.606;2023-01-10T14:23:54;10.90;96.90
10411;DHT22;5251;52.112;8.606;2023-01-10T14:26:36;10.80;96.70
10411;DHT22;5251;52.112;8.606;2023-01-10T14:29:07;10.80;96.80
10411;DHT22;5251;52.112;8.606;2023-01-10T14:31:37;10.80;96.80
10411;DHT22;5251;52.112;8.606;2023-01-10T14:34:07;10.70;96.70
10411;DHT22;5251;52.112;8.606;2023-01-10T14:36:44;10.80;96.80
10411;DHT22;5251;52.112;8.606;2023-01-10T14:39:14;10.80;96.80
10411;DHT22;5251;52.112;8.606;2023-01-10T14:41:45;10.70;96.60
10411;DHT22;5251;52.112;8.606;2023-01-10T14:44:30;10.70;96.60
10411;DHT22;5251;52.112;8.606;2023-01-10T14:46:58;10.70;96.70
10411;DHT22;5251;52.112;8.606;2023-01-10T14:52:09;10.70;96.50
10411;DHT22;5251;52.112;8.606;2023-01-10T14:54:35;10.70;96.40
10411;DHT22;5251;52.112;8.606;2023-01-10T14:57:01;10.60;96.40
10411;DHT22;5251;52.112;8.606;2023-01-10T14:59:33;10.60;96.40
10411;DHT22;5251;52.112;8.606;2023-01-10T15:04:56;10.60;96.50
10411;DHT22;5251;52.112;8.606;2023-01-10T15:07:23;10.50;96.70
10411;DHT22;5251;52.112;8.606;2023-01-10T15:09:51;10.50;96.40
10411;DHT22;5251;52.112;8.606;2023-01-10T15:12:18;10.50;96.30
10411;DHT22;5251;52.112;8.606;2023-01-10T15:14:46;10.50;96.30
10411;DHT22;5251;52.112;8.606;2023-01-10T15:17:15;10.50;96.30
10411;DHT22;5251;52.112;8.606;2023-01-10T15:19:43;10.40;96.30
10411;DHT22;5251;52.112;8.606;2023-01-10T15:22:19;10.40;96.30
10411;DHT22;5251;52.112;8.606;2023-01-10T15:27:44;10.40;96.50
10411;DHT22;5251;52.112;8.606;2023-01-10T15:30:18;10.30;96.30
10411;DHT22;5251;52.112;8.606;2023-01-10T15:32:48;10.30;96.40
10411;DHT22;5251;52.112;8.606;2023-01-10T15:35:15;10.40;96.30
10411;DHT22;5251;52.112;8.606;2023-01-10T15:37:51;10.30;96.30
10411;DHT22;5251;52.112;8.606;2023-01-10T15:40:36;10.20;96.20
10411;DHT22;5251;52.112;8.606;2023-01-10T15:43:24;10.20;96.30
10411;DHT22;5251;52.112;8.606;2023-01-10T15:45:51;10.20;96.40
10411;DHT22;5251;52.112;8.606;2023-01-10T15:51:20;10.20;96.20
10411;DHT22;5251;52.112;8.606;2023-01-10T15:56:37;10.10;96.10
10411;DHT22;5251;52.112;8.606;2023-01-10T15:59:04;10.10;96.20
10411;DHT22;5251;52.112;8.606;2023-01-10T16:01:59;10.10;96.30
10411;DHT22;5251;52.112;8.606;2023-01-10T16:04:33;10.10;96.10
10411;DHT22;5251;52.112;8.606;2023-01-10T16:07:19;10.00;96.10
10411;DHT22;5251;52.112;8.606;2023-01-10T16:10:05;10.00;96.20
10411;DHT22;5251;52.112;8.606;2023-01-10T16:12:39;10.00;96.20
10411;DHT22;5251;52.112;8.606;2023-01-10T16:15:26;10.00;96.20
10411;DHT22;5251;52.112;8.606;2023-01-10T16:17:52;10.00;96.20
10411;DHT22;5251;52.112;8.606;2023-01-10T16:20:45;10.00;96.10
10411;DHT22;5251;52.112;8.606;2023-01-10T16:23:14;9.90;96.80
10411;DHT22;5251;52.112;8.606;2023-01-10T16:25:47;9.90;96.70
10411;DHT22;5251;52.112;8.606;2023-01-10T16:28:15;9.80;96.50
10411;DHT22;5251;52.112;8.606;2023-01-10T16:30:42;9.90;96.60
10411;DHT22;5251;52.112;8.606;2023-01-10T16:33:13;9.90;96.70
10411;DHT22;5251;52.112;8.606;2023-01-10T16:35:41;9.90;96.50
10411;DHT22;5251;52.112;8.606;2023-01-10T16:38:09;9.90;96.60
10411;DHT22;5251;52.112;8.606;2023-01-10T16:40:40;9.90;96.60
10411;DHT22;5251;52.112;8.606;2023-01-10T16:43:06;9.80;96.60
10411;DHT22;5251;52.112;8.606;2023-01-10T16:45:50;9.90;96.60
10411;DHT22;5251;52.112;8.606;2023-01-10T16:48:18;9.90;96.50
10411;DHT22;5251;52.112;8.606;2023-01-10T16:50:45;9.80;96.30
10411;DHT22;5251;52.112;8.606;2023-01-10T16:53:15;9.80;96.30
10411;DHT22;5251;52.112;8.606;2023-01-10T16:55:51;9.90;96.30
10411;DHT22;5251;52.112;8.606;2023-01-10T16:58:18;9.90;96.20
10411;DHT22;5251;52.112;8.606;2023-01-10T17:00:48;9.80;96.10
10411;DHT22;5251;52.112;8.606;2023-01-10T17:03:19;9.90;96.00
10411;DHT22;5251;52.112;8.606;2023-01-10T17:05:45;9.90;96.00
10411;DHT22;5251;52.112;8.606;2023-01-10T17:08:22;9.90;96.00
10411;DHT22;5251;52.112;8.606;2023-01-10T17:10:55;9.90;95.90
10411;DHT22;5251;52.112;8.606;2023-01-10T17:13:26;10.00;95.50
10411;DHT22;5251;52.112;8.606;2023-01-10T17:15:52;9.90;95.90
10411;DHT22;5251;52.112;8.606;2023-01-10T17:18:18;9.90;95.80
10411;DHT22;5251;52.112;8.606;2023-01-10T17:20:43;10.00;95.20
10411;DHT22;5251;52.112;8.606;2023-01-10T17:23:11;10.00;95.10
10411;DHT22;5251;52.112;8.606;2023-01-10T17:25:37;10.00;95.10
10411;DHT22;5251;52.112;8.606;2023-01-10T17:28:03;10.00;95.00
10411;DHT22;5251;52.112;8.606;2023-01-10T17:30:28;10.00;95.00
10411;DHT22;5251;52.112;8.606;2023-01-10T17:32:54;10.00;94.90
10411;DHT22;5251;52.112;8.606;2023-01-10T17:35:19;10.00;94.90
10411;DHT22;5251;52.112;8.606;2023-01-10T17:37:49;9.90;95.30
10411;DHT22;5251;52.112;8.606;2023-01-10T17:40:15;10.00;94.80
10411;DHT22;5251;52.112;8.606;2023-01-10T17:42:41;10.00;94.80
10411;DHT22;5251;52.112;8.606;2023-01-10T17:45:07;10.00;94.80
10411;DHT22;5251;52.112;8.606;2023-01-10T17:47:32;10.00;94.90
10411;DHT22;5251;52.112;8.606;2023-01-10T17:49:58;10.00;94.90
10411;DHT22;5251;52.112;8.606;2023-01-10T17:52:23;10.00;95.20
10411;DHT22;5251;52.112;8.606;2023-01-10T17:54:49;10.00;95.40
10411;DHT22;5251;52.112;8.606;2023-01-10T17:57:14;10.00;95.50
10411;DHT22;5251;52.112;8.606;2023-01-10T17:59:40;10.00;95.50
10411;DHT22;5251;52.112;8.606;2023-01-10T18:02:13;10.00;95.60